createdAt,value
2022-12-20T00:00:44.503Z,1003.58
2022-12-20T00:01:44.609Z,1003.53
2022-12-20T00:02:44.518Z,1003.64
2022-12-20T00:03:44.549Z,1003.60
2022-12-20T00:05:16.396Z,1003.57
2022-12-20T00:05:44.470Z,1003.55
2022-12-20T00:06:45.453Z,1003.53
2022-12-20T00:07:44.468Z,1003.55
2022-12-20T00:08:44.472Z,1003.53
2022-12-20T00:09:44.441Z,1003.51
2022-12-20T00:10:44.419Z,1003.53
2022-12-20T00:11:44.453Z,1003.55
2022-12-20T00:12:44.427Z,1003.52
2022-12-20T00:14:17.381Z,1003.51
2022-12-20T00:14:44.409Z,1003.49
2022-12-20T00:15:45.263Z,1003.54
2022-12-20T00:16:44.381Z,1003.46
2022-12-20T00:17:44.489Z,1003.46
2022-12-20T00:18:44.400Z,1003.52
2022-12-20T00:19:44.392Z,1003.41
2022-12-20T00:20:44.576Z,1003.46
2022-12-20T00:21:45.349Z,1003.42
2022-12-20T00:22:44.339Z,1003.42
2022-12-20T00:23:44.367Z,1003.42
2022-12-20T00:24:44.323Z,1003.43
2022-12-20T00:25:44.328Z,1003.41
2022-12-20T00:26:44.379Z,1003.44
2022-12-20T00:27:44.308Z,1003.32
2022-12-20T00:28:44.308Z,1003.41
2022-12-20T00:29:44.329Z,1003.36
2022-12-20T00:30:44.295Z,1003.39
2022-12-20T00:31:44.340Z,1003.40
2022-12-20T00:32:44.277Z,1003.41
2022-12-20T00:33:44.287Z,1003.34
2022-12-20T00:34:44.253Z,1003.34
2022-12-20T00:35:44.267Z,1003.34
2022-12-20T00:36:44.237Z,1003.35
2022-12-20T00:38:16.128Z,1003.35
2022-12-20T00:38:44.215Z,1003.36
2022-12-20T00:39:44.249Z,1003.42
2022-12-20T00:40:44.222Z,1003.35
2022-12-20T00:41:44.829Z,1003.34
2022-12-20T00:42:44.218Z,1003.42
2022-12-20T00:43:44.177Z,1003.38
2022-12-20T00:44:44.177Z,1003.39
2022-12-20T00:45:44.150Z,1003.41
2022-12-20T00:46:45.242Z,1003.37
2022-12-20T00:47:44.184Z,1003.36
2022-12-20T00:48:44.142Z,1003.39
2022-12-20T00:49:44.126Z,1003.47
2022-12-20T00:50:44.197Z,1003.51
2022-12-20T00:51:44.174Z,1003.43
2022-12-20T00:52:44.112Z,1003.40
2022-12-20T00:53:44.147Z,1003.34
2022-12-20T00:54:44.086Z,1003.42
2022-12-20T00:55:44.119Z,1003.36
2022-12-20T00:56:44.117Z,1003.39
2022-12-20T00:57:44.117Z,1003.40
2022-12-20T00:58:44.087Z,1003.37
2022-12-20T00:59:44.039Z,1003.45
2022-12-20T01:00:44.076Z,1003.40
2022-12-20T01:01:46.008Z,1003.38
2022-12-20T01:02:44.207Z,1003.37
2022-12-20T01:03:44.049Z,1003.35
2022-12-20T01:04:44.015Z,1003.32
2022-12-20T01:05:44.007Z,1003.33
2022-12-20T01:06:44.031Z,1003.23
2022-12-20T01:07:43.981Z,1003.27
2022-12-20T01:08:45.288Z,1003.19
2022-12-20T01:09:43.990Z,1003.22
2022-12-20T01:10:43.965Z,1003.19
2022-12-20T01:11:44.819Z,1003.14
2022-12-20T01:12:43.940Z,1003.15
2022-12-20T01:13:44.003Z,1003.12
2022-12-20T01:14:43.962Z,1003.03
2022-12-20T01:15:43.920Z,1003.03
2022-12-20T01:16:44.009Z,1003.08
2022-12-20T01:17:44.800Z,1002.99
2022-12-20T01:18:43.906Z,1003.01
2022-12-20T01:19:43.907Z,1003.00
2022-12-20T01:20:43.920Z,1003.03
2022-12-20T01:21:43.877Z,1003.09
2022-12-20T01:22:47.609Z,1003.08
2022-12-20T01:23:44.843Z,1003.02
2022-12-20T01:24:43.895Z,1003.02
2022-12-20T01:25:43.829Z,1002.97
2022-12-20T01:26:44.915Z,1002.92
2022-12-20T01:27:43.832Z,1002.99
2022-12-20T01:28:43.822Z,1002.91
2022-12-20T01:29:44.668Z,1002.89
2022-12-20T01:30:43.817Z,1002.95
2022-12-20T01:31:44.917Z,1002.94
2022-12-20T01:32:44.800Z,1002.95
2022-12-20T01:33:43.797Z,1002.90
2022-12-20T01:34:43.881Z,1002.93
2022-12-20T01:35:44.315Z,1002.89
2022-12-20T01:36:44.692Z,1002.91
2022-12-20T01:37:43.764Z,1002.90
2022-12-20T01:38:43.732Z,1002.92
2022-12-20T01:39:43.751Z,1002.82
2022-12-20T01:40:43.757Z,1002.84
2022-12-20T01:41:43.754Z,1002.87
2022-12-20T01:42:43.746Z,1002.95
2022-12-20T01:43:45.639Z,1002.93
2022-12-20T01:44:43.751Z,1002.86
2022-12-20T01:45:43.784Z,1002.92
2022-12-20T01:46:43.757Z,1002.94
2022-12-20T01:47:43.668Z,1002.95
2022-12-20T01:48:44.676Z,1002.97
2022-12-20T01:49:45.003Z,1002.97
2022-12-20T01:50:44.296Z,1002.99
2022-12-20T01:51:43.667Z,1002.96
2022-12-20T01:52:43.624Z,1002.94
2022-12-20T01:53:43.618Z,1003.04
2022-12-20T01:54:43.614Z,1003.05
2022-12-20T01:55:43.625Z,1002.99
2022-12-20T01:56:43.595Z,1002.93
2022-12-20T01:57:43.611Z,1002.89
2022-12-20T01:58:43.621Z,1002.88
2022-12-20T01:59:43.583Z,1002.91
2022-12-20T02:00:43.608Z,1002.84
2022-12-20T02:01:44.308Z,1002.84
2022-12-20T02:02:43.689Z,1002.85
2022-12-20T02:03:43.652Z,1002.88
2022-12-20T02:04:43.551Z,1002.91
2022-12-20T02:05:43.527Z,1002.96
2022-12-20T02:06:44.058Z,1002.91
2022-12-20T02:07:44.308Z,1002.93
2022-12-20T02:08:43.540Z,1002.91
2022-12-20T02:09:43.524Z,1002.84
2022-12-20T02:10:43.553Z,1002.80
2022-12-20T02:11:43.507Z,1002.78
2022-12-20T02:12:43.495Z,1002.86
2022-12-20T02:13:43.623Z,1002.81
2022-12-20T02:14:43.473Z,1002.80
2022-12-20T02:15:43.460Z,1002.76
2022-12-20T02:16:43.513Z,1002.75
2022-12-20T02:17:44.145Z,1002.74
2022-12-20T02:18:43.494Z,1002.66
2022-12-20T02:19:43.452Z,1002.71
2022-12-20T02:20:43.409Z,1002.66
2022-12-20T02:21:44.223Z,1002.65
2022-12-20T02:22:43.386Z,1002.65
2022-12-20T02:23:43.376Z,1002.57
2022-12-20T02:24:44.822Z,1002.60
2022-12-20T02:25:43.386Z,1002.59
2022-12-20T02:26:43.387Z,1002.58
2022-12-20T02:27:43.370Z,1002.58
2022-12-20T02:28:44.293Z,1002.55
2022-12-20T02:29:43.379Z,1002.53
2022-12-20T02:30:43.330Z,1002.48
2022-12-20T02:31:43.413Z,1002.54
2022-12-20T02:32:43.372Z,1002.50
2022-12-20T02:33:43.329Z,1002.54
2022-12-20T02:34:43.330Z,1002.41
2022-12-20T02:35:43.368Z,1002.33
2022-12-20T02:36:43.290Z,1002.35
2022-12-20T02:37:43.293Z,1002.30
2022-12-20T02:38:43.284Z,1002.33
2022-12-20T02:39:43.277Z,1002.42
2022-12-20T02:40:43.253Z,1002.42
2022-12-20T02:41:43.283Z,1002.44
2022-12-20T02:42:43.276Z,1002.56
2022-12-20T02:43:43.268Z,1002.44
2022-12-20T02:44:43.250Z,1002.48
2022-12-20T02:45:43.265Z,1002.49
2022-12-20T02:46:43.256Z,1002.40
2022-12-20T02:47:43.186Z,1002.35
2022-12-20T02:48:43.195Z,1002.35
2022-12-20T02:49:43.208Z,1002.32
2022-12-20T02:50:44.655Z,1002.28
2022-12-20T02:51:44.156Z,1002.30
2022-12-20T02:52:43.164Z,1002.40
2022-12-20T02:53:43.273Z,1002.42
2022-12-20T02:54:43.160Z,1002.38
2022-12-20T02:55:43.169Z,1002.43
2022-12-20T02:56:43.148Z,1002.44
2022-12-20T02:57:43.145Z,1002.46
2022-12-20T02:58:43.134Z,1002.33
2022-12-20T02:59:43.108Z,1002.33
2022-12-20T03:00:43.647Z,1002.24
2022-12-20T03:01:43.173Z,1002.24
2022-12-20T03:02:43.279Z,1002.13
2022-12-20T03:03:43.786Z,1002.23
2022-12-20T03:04:43.057Z,1002.34
2022-12-20T03:05:43.067Z,1002.40
2022-12-20T03:06:43.035Z,1002.38
2022-12-20T03:07:43.064Z,1002.36
2022-12-20T03:08:43.079Z,1002.33
2022-12-20T03:09:43.082Z,1002.34
2022-12-20T03:10:43.015Z,1002.37
2022-12-20T03:11:42.997Z,1002.40
2022-12-20T03:12:43.016Z,1002.43
2022-12-20T03:13:43.003Z,1002.39
2022-12-20T03:14:43.009Z,1002.35
2022-12-20T03:15:42.979Z,1002.31
2022-12-20T03:16:43.034Z,1002.28
2022-12-20T03:17:42.993Z,1002.27
2022-12-20T03:18:42.960Z,1002.28
2022-12-20T03:19:42.959Z,1002.24
2022-12-20T03:20:42.973Z,1002.23
2022-12-20T03:21:42.915Z,1002.27
2022-12-20T03:22:42.937Z,1002.27
2022-12-20T03:23:42.922Z,1002.27
2022-12-20T03:24:43.804Z,1002.27
2022-12-20T03:25:42.911Z,1002.25
2022-12-20T03:26:42.950Z,1002.17
2022-12-20T03:27:42.888Z,1002.30
2022-12-20T03:28:43.725Z,1002.19
2022-12-20T03:29:42.896Z,1002.20
2022-12-20T03:30:42.912Z,1002.14
2022-12-20T03:31:43.723Z,1002.15
2022-12-20T03:32:44.425Z,1002.09
2022-12-20T03:33:42.954Z,1002.13
2022-12-20T03:34:42.947Z,1002.07
2022-12-20T03:35:42.818Z,1002.11
2022-12-20T03:36:43.825Z,1002.16
2022-12-20T03:37:42.835Z,1002.20
2022-12-20T03:38:42.827Z,1002.23
2022-12-20T03:39:42.786Z,1002.16
2022-12-20T03:40:43.323Z,1002.19
2022-12-20T03:41:42.838Z,1002.15
2022-12-20T03:42:42.773Z,1002.19
2022-12-20T03:43:42.786Z,1002.22
2022-12-20T03:44:42.767Z,1002.24
2022-12-20T03:45:43.729Z,1002.15
2022-12-20T03:46:42.841Z,1002.16
2022-12-20T04:02:51.063Z,1002.34
2022-12-20T04:03:50.841Z,1002.29
2022-12-20T04:04:50.744Z,1002.41
2022-12-20T04:05:50.819Z,1002.38
2022-12-20T04:06:50.728Z,1002.39
2022-12-20T04:07:51.861Z,1002.38
2022-12-20T04:08:51.880Z,1002.34
2022-12-20T04:09:51.853Z,1002.28
2022-12-20T04:10:51.855Z,1002.40
2022-12-20T04:11:51.836Z,1002.30
2022-12-20T04:12:51.835Z,1002.30
2022-12-20T04:13:51.831Z,1002.32
2022-12-20T04:14:51.808Z,1002.38
2022-12-20T04:15:56.669Z,1002.32
2022-12-20T04:16:53.828Z,1002.32
2022-12-20T04:17:51.810Z,1002.38
2022-12-20T04:18:51.782Z,1002.23
2022-12-20T04:19:51.791Z,1002.26
2022-12-20T04:20:51.768Z,1002.33
2022-12-20T04:21:51.783Z,1002.24
2022-12-20T04:22:51.769Z,1002.18
2022-12-20T04:23:51.772Z,1002.17
2022-12-20T04:24:51.741Z,1002.12
2022-12-20T04:25:51.751Z,1002.02
2022-12-20T04:26:51.740Z,1002.04
2022-12-20T04:27:51.732Z,1001.93
2022-12-20T04:28:51.744Z,1001.91
2022-12-20T04:29:51.735Z,1001.94
2022-12-20T04:30:51.753Z,1001.91
2022-12-20T04:31:51.813Z,1001.86
2022-12-20T04:32:51.687Z,1001.87
2022-12-20T04:33:51.669Z,1002.01
2022-12-20T04:34:51.656Z,1001.92
2022-12-20T04:35:51.745Z,1001.84
2022-12-20T04:36:51.911Z,1001.83
2022-12-20T04:37:51.681Z,1001.85
2022-12-20T04:38:51.626Z,1001.79
2022-12-20T04:39:51.616Z,1001.76
2022-12-20T04:40:51.612Z,1001.80
2022-12-20T04:41:51.602Z,1001.67
2022-12-20T04:42:51.602Z,1001.63
2022-12-20T04:43:51.587Z,1001.66
2022-12-20T04:44:51.635Z,1001.72
2022-12-20T04:45:51.590Z,1001.75
2022-12-20T04:46:51.614Z,1001.80
2022-12-20T04:47:51.560Z,1001.86
2022-12-20T04:48:59.839Z,1001.88
2022-12-20T04:49:53.558Z,1001.81
2022-12-20T04:50:51.541Z,1001.76
2022-12-20T04:51:51.515Z,1001.75
2022-12-20T04:52:51.515Z,1001.68
2022-12-20T04:53:51.534Z,1001.71
2022-12-20T04:54:51.517Z,1001.65
2022-12-20T04:55:51.520Z,1001.58
2022-12-20T04:56:51.488Z,1001.59
2022-12-20T04:57:51.486Z,1001.61
2022-12-20T04:58:51.508Z,1001.60
2022-12-20T04:59:51.476Z,1001.64
2022-12-20T05:00:51.499Z,1001.69
2022-12-20T05:01:51.549Z,1001.70
2022-12-20T05:02:51.891Z,1001.71
2022-12-20T05:03:51.584Z,1001.71
2022-12-20T05:04:51.417Z,1001.71
2022-12-20T05:05:51.404Z,1001.58
2022-12-20T05:06:51.409Z,1001.60
2022-12-20T05:07:51.428Z,1001.65
2022-12-20T05:08:51.425Z,1001.52
2022-12-20T05:09:51.401Z,1001.50
2022-12-20T05:10:51.396Z,1001.51
2022-12-20T05:11:52.321Z,1001.48
2022-12-20T05:12:51.366Z,1001.51
2022-12-20T05:13:51.389Z,1001.57
2022-12-20T05:14:51.374Z,1001.67
2022-12-20T05:15:51.403Z,1001.62
2022-12-20T05:16:51.340Z,1001.49
2022-12-20T05:17:52.841Z,1001.51
2022-12-20T05:18:51.326Z,1001.49
2022-12-20T05:19:51.353Z,1001.50
2022-12-20T05:20:51.335Z,1001.47
2022-12-20T05:21:51.408Z,1001.48
2022-12-20T05:22:51.327Z,1001.39
2022-12-20T05:23:51.286Z,1001.36
2022-12-20T05:24:51.277Z,1001.48
2022-12-20T05:25:51.262Z,1001.48
2022-12-20T05:26:51.338Z,1001.40
2022-12-20T05:27:51.255Z,1001.40
2022-12-20T05:28:51.252Z,1001.40
2022-12-20T05:29:51.244Z,1001.45
2022-12-20T05:30:51.397Z,1001.44
2022-12-20T05:31:51.299Z,1001.44
2022-12-20T05:32:51.197Z,1001.50
2022-12-20T05:33:51.247Z,1001.50
2022-12-20T05:34:51.250Z,1001.47
2022-12-20T05:35:52.001Z,1001.42
2022-12-20T05:36:51.267Z,1001.41
2022-12-20T05:37:51.209Z,1001.39
2022-12-20T05:38:51.176Z,1001.43
2022-12-20T05:39:51.184Z,1001.38
2022-12-20T05:40:51.208Z,1001.36
2022-12-20T05:41:51.168Z,1001.43
2022-12-20T05:42:51.135Z,1001.30
2022-12-20T05:43:51.981Z,1001.36
2022-12-20T05:44:51.112Z,1001.33
2022-12-20T05:45:51.107Z,1001.30
2022-12-20T05:46:51.200Z,1001.30
2022-12-20T05:47:51.103Z,1001.25
2022-12-20T05:48:51.143Z,1001.24
2022-12-20T05:49:51.105Z,1001.24
2022-12-20T05:50:51.094Z,1001.20
2022-12-20T05:51:51.154Z,1001.24
2022-12-20T05:52:51.092Z,1001.26
2022-12-20T05:53:51.066Z,1001.26
2022-12-20T05:54:51.593Z,1001.32
2022-12-20T05:55:51.018Z,1001.32
2022-12-20T05:56:51.044Z,1001.31
2022-12-20T05:57:51.027Z,1001.35
2022-12-20T05:58:53.893Z,1001.36
2022-12-20T05:59:50.993Z,1001.37
2022-12-20T06:00:51.021Z,1001.36
2022-12-20T06:01:51.668Z,1001.30
2022-12-20T06:02:51.222Z,1001.38
2022-12-20T06:03:51.127Z,1001.36
2022-12-20T06:04:50.980Z,1001.40
2022-12-20T06:05:50.961Z,1001.34
2022-12-20T06:06:50.968Z,1001.43
2022-12-20T06:07:50.946Z,1001.42
2022-12-20T06:08:50.946Z,1001.42
2022-12-20T06:09:50.984Z,1001.41
2022-12-20T06:10:50.929Z,1001.42
2022-12-20T06:11:50.919Z,1001.52
2022-12-20T06:12:50.927Z,1001.66
2022-12-20T06:13:51.897Z,1001.69
2022-12-20T06:14:50.907Z,1001.64
2022-12-20T06:15:50.967Z,1001.60
2022-12-20T06:16:50.899Z,1001.60
2022-12-20T06:17:50.875Z,1001.64
2022-12-20T06:18:50.872Z,1001.60
2022-12-20T06:19:50.900Z,1001.64
2022-12-20T06:20:50.885Z,1001.53
2022-12-20T06:21:50.876Z,1001.51
2022-12-20T06:22:50.818Z,1001.46
2022-12-20T06:23:50.802Z,1001.45
2022-12-20T06:24:51.480Z,1001.48
2022-12-20T06:25:50.782Z,1001.37
2022-12-20T06:26:50.837Z,1001.34
2022-12-20T06:27:50.791Z,1001.35
2022-12-20T06:28:50.797Z,1001.37
2022-12-20T06:29:50.791Z,1001.36
2022-12-20T06:30:50.763Z,1001.35
2022-12-20T06:31:50.826Z,1001.37
2022-12-20T06:32:50.749Z,1001.43
2022-12-20T06:33:50.730Z,1001.46
2022-12-20T06:34:50.735Z,1001.48
2022-12-20T06:35:50.746Z,1001.54
2022-12-20T06:36:50.739Z,1001.52
2022-12-20T06:38:22.644Z,1001.52
2022-12-20T06:38:50.663Z,1001.48
2022-12-20T06:39:51.721Z,1001.43
2022-12-20T06:40:50.809Z,1001.47
2022-12-20T06:41:50.711Z,1001.40
2022-12-20T06:42:50.707Z,1001.46
2022-12-20T06:43:50.680Z,1001.49
2022-12-20T06:44:50.715Z,1001.44
2022-12-20T06:45:50.659Z,1001.37
2022-12-20T06:46:51.639Z,1001.38
2022-12-20T06:47:50.656Z,1001.48
2022-12-20T06:48:50.636Z,1001.39
2022-12-20T06:49:50.606Z,1001.46
2022-12-20T06:50:55.608Z,1001.51
2022-12-20T06:51:52.632Z,1001.45
2022-12-20T06:52:50.602Z,1001.42
2022-12-20T06:53:50.601Z,1001.57
2022-12-20T06:54:50.596Z,1001.63
2022-12-20T06:55:50.591Z,1001.66
2022-12-20T06:56:50.561Z,1001.67
2022-12-20T06:57:50.560Z,1001.59
2022-12-20T06:58:50.595Z,1001.60
2022-12-20T06:59:50.596Z,1001.53
2022-12-20T07:00:50.623Z,1001.48
2022-12-20T07:01:50.608Z,1001.55
2022-12-20T07:02:50.655Z,1001.51
2022-12-20T07:03:50.654Z,1001.46
2022-12-20T07:04:50.487Z,1001.45
2022-12-20T07:05:50.519Z,1001.49
2022-12-20T07:06:50.479Z,1001.41
2022-12-20T07:07:50.503Z,1001.43
2022-12-20T07:08:50.509Z,1001.44
2022-12-20T07:09:50.443Z,1001.44
2022-12-20T07:10:50.449Z,1001.38
2022-12-20T07:11:50.491Z,1001.43
2022-12-20T07:12:50.437Z,1001.43
2022-12-20T07:13:50.421Z,1001.46
2022-12-20T07:14:50.455Z,1001.49
2022-12-20T07:15:50.469Z,1001.48
2022-12-20T07:16:50.536Z,1001.48
2022-12-20T07:17:50.412Z,1001.42
2022-12-20T07:18:50.424Z,1001.41
2022-12-20T07:19:51.126Z,1001.43
2022-12-20T07:20:51.396Z,1001.43
2022-12-20T07:21:50.368Z,1001.43
2022-12-20T07:22:50.451Z,1001.45
2022-12-20T07:23:50.390Z,1001.43
2022-12-20T07:24:50.356Z,1001.41
2022-12-20T07:25:50.382Z,1001.46
2022-12-20T07:26:50.332Z,1001.46
2022-12-20T07:27:50.385Z,1001.43
2022-12-20T07:28:50.377Z,1001.45
2022-12-20T07:29:50.310Z,1001.39
2022-12-20T07:30:50.354Z,1001.44
2022-12-20T07:31:50.381Z,1001.49
2022-12-20T07:32:50.306Z,1001.51
2022-12-20T07:33:50.260Z,1001.50
2022-12-20T07:34:50.278Z,1001.56
2022-12-20T07:35:54.382Z,1001.52
2022-12-20T07:36:51.263Z,1001.52
2022-12-20T07:37:50.272Z,1001.54
2022-12-20T07:38:50.269Z,1001.56
2022-12-20T07:39:50.230Z,1001.48
2022-12-20T07:40:51.080Z,1001.57
2022-12-20T07:41:50.235Z,1001.53
2022-12-20T07:42:50.283Z,1001.57
2022-12-20T07:43:50.228Z,1001.57
2022-12-20T07:44:50.182Z,1001.62
2022-12-20T07:45:50.255Z,1001.63
2022-12-20T07:46:50.185Z,1001.65
2022-12-20T07:47:50.213Z,1001.60
2022-12-20T07:48:50.182Z,1001.59
2022-12-20T07:49:50.193Z,1001.55
2022-12-20T07:50:50.150Z,1001.57
2022-12-20T07:51:50.120Z,1001.51
2022-12-20T07:52:51.174Z,1001.52
2022-12-20T07:53:50.144Z,1001.47
2022-12-20T07:54:50.947Z,1001.52
2022-12-20T07:55:50.098Z,1001.49
2022-12-20T07:56:50.102Z,1001.56
2022-12-20T07:57:50.117Z,1001.53
2022-12-20T07:58:50.101Z,1001.54
2022-12-20T07:59:50.133Z,1001.54
2022-12-20T08:00:50.259Z,1001.52
2022-12-20T08:01:50.207Z,1001.47
2022-12-20T08:02:50.273Z,1001.48
2022-12-20T08:03:50.116Z,1001.51
2022-12-20T08:04:50.109Z,1001.45
2022-12-20T08:05:50.055Z,1001.46
2022-12-20T08:06:50.047Z,1001.45
2022-12-20T08:07:55.068Z,1001.42
2022-12-20T08:08:52.021Z,1001.34
2022-12-20T08:09:50.074Z,1001.32
2022-12-20T08:10:50.046Z,1001.34
2022-12-20T08:11:50.008Z,1001.29
2022-12-20T08:12:49.972Z,1001.21
2022-12-20T08:13:54.163Z,1001.17
2022-12-20T08:14:51.958Z,1001.17
2022-12-20T08:15:49.969Z,1001.12
2022-12-20T08:16:49.981Z,1001.07
2022-12-20T08:18:21.846Z,1001.13
2022-12-20T08:18:49.931Z,1001.11
2022-12-20T08:19:49.948Z,1001.03
2022-12-20T08:20:49.932Z,1000.98
2022-12-20T08:21:49.944Z,1001.01
2022-12-20T08:22:49.931Z,1001.00
2022-12-20T08:23:49.890Z,1001.08
2022-12-20T08:24:49.874Z,1001.09
2022-12-20T08:25:49.944Z,1001.05
2022-12-20T08:26:49.907Z,1001.04
2022-12-20T08:27:49.863Z,1001.04
2022-12-20T08:28:49.865Z,1000.93
2022-12-20T08:29:49.874Z,1000.92
2022-12-20T08:30:49.951Z,1000.90
2022-12-20T08:31:50.781Z,1000.88
2022-12-20T08:32:50.908Z,1000.85
2022-12-20T08:33:49.964Z,1000.83
2022-12-20T08:34:49.815Z,1000.90
2022-12-20T08:35:49.804Z,1000.87
2022-12-20T08:36:49.808Z,1000.86
2022-12-20T08:37:49.787Z,1000.87
2022-12-20T08:38:49.792Z,1000.87
2022-12-20T08:39:49.771Z,1000.90
2022-12-20T08:40:49.779Z,1000.85
2022-12-20T08:41:49.763Z,1000.80
2022-12-20T08:42:49.982Z,1000.83
2022-12-20T08:43:49.777Z,1000.84
2022-12-20T08:44:49.831Z,1000.74
2022-12-20T08:45:49.796Z,1000.73
2022-12-20T08:46:49.741Z,1000.67
2022-12-20T08:47:49.897Z,1000.59
2022-12-20T08:48:50.799Z,1000.60
2022-12-20T08:49:49.713Z,1000.55
2022-12-20T08:50:49.743Z,1000.49
2022-12-20T08:51:49.721Z,1000.42
2022-12-20T08:52:49.684Z,1000.36
2022-12-20T08:53:49.676Z,1000.36
2022-12-20T08:54:49.678Z,1000.31
2022-12-20T08:55:49.656Z,1000.28
2022-12-20T08:56:49.642Z,1000.28
2022-12-20T08:57:49.644Z,1000.21
2022-12-20T08:58:49.628Z,1000.17
2022-12-20T08:59:49.666Z,1000.16
2022-12-20T09:00:49.599Z,1000.18
2022-12-20T09:01:49.697Z,1000.21
2022-12-20T09:02:49.745Z,1000.13
2022-12-20T09:03:49.663Z,1000.15
2022-12-20T09:04:49.556Z,1000.17
2022-12-20T09:05:49.571Z,1000.18
2022-12-20T09:06:49.545Z,1000.15
2022-12-20T09:07:49.532Z,1000.22
2022-12-20T09:08:49.593Z,1000.24
2022-12-20T09:09:49.541Z,1000.33
2022-12-20T09:10:49.599Z,1000.32
2022-12-20T09:11:49.529Z,1000.29
2022-12-20T09:12:49.515Z,1000.29
2022-12-20T09:13:49.499Z,1000.24
2022-12-20T09:14:49.505Z,1000.23
2022-12-20T09:15:49.559Z,1000.26
2022-12-20T09:16:49.511Z,1000.23
2022-12-20T09:17:49.507Z,1000.22
2022-12-20T09:18:49.485Z,1000.22
2022-12-20T09:19:49.501Z,1000.21
2022-12-20T09:20:49.443Z,1000.25
2022-12-20T09:21:49.459Z,1000.21
2022-12-20T09:22:49.428Z,1000.15
2022-12-20T09:23:49.446Z,1000.15
2022-12-20T09:24:49.421Z,1000.19
2022-12-20T09:25:53.706Z,1000.16
2022-12-20T09:27:21.357Z,1000.12
2022-12-20T09:27:49.447Z,1000.11
2022-12-20T09:29:28.318Z,1000.13
2022-12-20T09:29:50.406Z,1000.14
2022-12-20T09:30:49.472Z,1000.11
2022-12-20T09:31:49.356Z,1000.08
2022-12-20T09:32:49.362Z,1000.09
2022-12-20T09:33:49.428Z,1000.08
2022-12-20T09:34:49.341Z,1000.14
2022-12-20T09:35:49.383Z,1000.15
2022-12-20T09:36:49.355Z,1000.15
2022-12-20T09:37:49.336Z,1000.19
2022-12-20T09:38:49.343Z,1000.17
2022-12-20T09:39:49.342Z,1000.13
2022-12-20T09:40:49.303Z,1000.10
2022-12-20T09:41:49.294Z,1000.06
2022-12-20T09:42:49.306Z,1000.10
2022-12-20T09:43:49.258Z,1000.12
2022-12-20T09:46:47.431Z,1000.15
2022-12-20T09:47:47.403Z,1000.15
2022-12-20T09:48:47.386Z,1000.19
2022-12-20T09:49:47.370Z,1000.15
2022-12-20T09:50:47.360Z,1000.11
2022-12-20T09:51:47.375Z,1000.18
2022-12-20T09:52:47.334Z,1000.11
2022-12-20T09:53:47.337Z,1000.08
2022-12-20T09:54:47.317Z,1000.10
2022-12-20T09:55:47.335Z,1000.09
2022-12-20T09:56:47.302Z,1000.06
2022-12-20T09:57:47.327Z,1000.04
2022-12-20T09:58:47.298Z,999.97
2022-12-20T09:59:50.005Z,1000.01
2022-12-20T10:00:53.985Z,1000.02
2022-12-20T10:01:50.501Z,1000.01
2022-12-20T10:03:09.898Z,1000.05
2022-12-20T10:03:50.722Z,1000.05
2022-12-20T10:04:48.564Z,1000.06
2022-12-20T10:06:20.324Z,1000.05
2022-12-20T10:06:48.399Z,1000.01
2022-12-20T10:07:48.355Z,1000.02
2022-12-20T10:08:48.359Z,999.96
2022-12-20T10:09:48.398Z,999.89
2022-12-20T10:10:48.421Z,999.89
2022-12-20T10:11:50.768Z,999.96
2022-12-20T10:12:49.328Z,999.96
2022-12-20T10:13:48.334Z,999.98
2022-12-20T10:14:48.409Z,999.94
2022-12-20T10:15:48.391Z,999.94
2022-12-20T10:16:48.283Z,999.86
2022-12-20T10:17:48.298Z,999.86
2022-12-20T10:18:48.275Z,999.86
2022-12-20T10:19:48.300Z,999.87
2022-12-20T10:20:48.291Z,999.87
2022-12-20T10:21:48.277Z,999.84
2022-12-20T10:22:48.319Z,999.87
2022-12-20T10:23:48.251Z,999.93
2022-12-20T10:24:48.245Z,999.89
2022-12-20T10:25:48.290Z,999.88
2022-12-20T10:26:48.307Z,999.87
2022-12-20T10:27:48.260Z,999.94
2022-12-20T10:28:53.800Z,999.89
2022-12-20T10:29:50.199Z,999.87
2022-12-20T10:30:48.230Z,999.91
2022-12-20T10:31:48.222Z,999.87
2022-12-20T10:32:48.224Z,999.83
2022-12-20T10:33:48.174Z,999.84
2022-12-20T10:34:48.754Z,999.87
2022-12-20T10:35:49.166Z,999.85
2022-12-20T10:36:48.152Z,999.82
2022-12-20T10:38:06.492Z,999.80
2022-12-20T10:38:50.154Z,999.81
2022-12-20T10:39:48.153Z,999.80
2022-12-20T10:41:50.142Z,999.64
2022-12-20T10:42:48.136Z,999.66
2022-12-20T10:43:48.107Z,999.63
2022-12-20T10:44:48.081Z,999.62
2022-12-20T10:45:48.070Z,999.60
2022-12-20T10:46:48.118Z,999.64
2022-12-20T10:47:48.095Z,999.61
2022-12-20T10:48:48.097Z,999.53
2022-12-20T10:49:48.065Z,999.63
2022-12-20T10:50:48.118Z,999.64
2022-12-20T10:51:48.096Z,999.69
2022-12-20T10:52:48.054Z,999.59
2022-12-20T10:53:48.063Z,999.59
2022-12-20T10:54:48.033Z,999.53
2022-12-20T10:55:47.990Z,999.47
2022-12-20T10:56:48.035Z,999.52
2022-12-20T10:57:48.000Z,999.53
2022-12-20T10:58:47.994Z,999.51
2022-12-20T10:59:48.059Z,999.53
2022-12-20T11:00:47.968Z,999.63
2022-12-20T11:01:48.050Z,999.60
2022-12-20T11:02:48.065Z,999.54
2022-12-20T11:03:48.005Z,999.52
2022-12-20T11:04:47.971Z,999.46
2022-12-20T11:05:48.044Z,999.46
2022-12-20T11:06:47.930Z,999.54
2022-12-20T11:08:08.544Z,999.49
2022-12-20T11:08:53.993Z,999.44
2022-12-20T11:09:49.907Z,999.49
2022-12-20T11:10:47.912Z,999.51
2022-12-20T11:11:47.928Z,999.48
2022-12-20T11:12:47.861Z,999.43
2022-12-20T11:13:47.951Z,999.44
2022-12-20T11:14:47.866Z,999.46
2022-12-20T11:15:48.564Z,999.47
2022-12-20T11:16:47.951Z,999.48
2022-12-20T11:17:47.848Z,999.49
2022-12-20T11:18:47.811Z,999.48
2022-12-20T11:19:47.876Z,999.48
2022-12-20T11:20:49.598Z,999.45
2022-12-20T11:21:47.808Z,999.39
2022-12-20T11:22:47.824Z,999.42
2022-12-20T11:23:47.874Z,999.43
2022-12-20T11:24:47.808Z,999.39
2022-12-20T11:25:47.826Z,999.38
2022-12-20T11:26:47.775Z,999.36
2022-12-20T11:28:19.644Z,999.33
2022-12-20T11:28:47.741Z,999.28
2022-12-20T11:29:47.777Z,999.31
2022-12-20T11:30:47.729Z,999.29
2022-12-20T11:31:47.774Z,999.30
2022-12-20T11:32:48.993Z,999.28
2022-12-20T11:33:48.701Z,999.27
2022-12-20T11:34:47.707Z,999.22
2022-12-20T11:35:47.749Z,999.30
2022-12-20T11:36:47.705Z,999.21
2022-12-20T11:37:47.697Z,999.18
2022-12-20T11:38:47.674Z,999.22
2022-12-20T11:39:47.683Z,999.13
2022-12-20T11:40:47.657Z,999.16
2022-12-20T11:41:47.645Z,999.15
2022-12-20T11:42:47.634Z,999.21
2022-12-20T11:44:15.848Z,999.24
2022-12-20T11:44:57.976Z,999.26
2022-12-20T11:45:49.631Z,999.21
2022-12-20T11:46:47.694Z,999.16
2022-12-20T11:47:47.614Z,999.12
2022-12-20T11:48:47.631Z,999.09
2022-12-20T11:49:47.608Z,999.07
2022-12-20T11:50:47.566Z,999.13
2022-12-20T11:51:47.557Z,999.12
2022-12-20T11:52:47.591Z,999.11
2022-12-20T11:53:47.566Z,999.09
2022-12-20T11:54:47.554Z,999.07
2022-12-20T11:56:19.529Z,999.06
2022-12-20T11:56:47.524Z,999.08
2022-12-20T11:58:08.950Z,999.05
2022-12-20T11:58:49.595Z,999.06
2022-12-20T11:59:47.491Z,999.06
2022-12-20T12:00:47.563Z,999.06
2022-12-20T12:01:47.667Z,999.08
2022-12-20T12:02:51.653Z,999.03
2022-12-20T12:03:48.501Z,999.10
2022-12-20T12:04:47.497Z,999.15
2022-12-20T12:05:47.572Z,999.07
2022-12-20T12:06:47.547Z,999.06
2022-12-20T12:07:47.470Z,999.03
2022-12-20T12:08:47.446Z,999.07
2022-12-20T12:09:48.443Z,999.07
2022-12-20T12:10:47.500Z,999.08
2022-12-20T12:12:16.421Z,999.13
2022-12-20T12:12:49.400Z,999.19
2022-12-20T12:13:47.433Z,999.14
2022-12-20T12:14:47.412Z,999.09
2022-12-20T12:15:47.378Z,999.16
2022-12-20T12:16:47.485Z,999.06
2022-12-20T12:17:47.394Z,999.11
2022-12-20T12:18:47.365Z,999.12
2022-12-20T12:19:47.388Z,999.11
2022-12-20T12:20:47.338Z,999.15
2022-12-20T12:21:47.371Z,999.12
2022-12-20T12:22:47.346Z,999.10
2022-12-20T12:23:47.369Z,999.06
2022-12-20T12:24:47.303Z,999.03
2022-12-20T12:25:47.308Z,999.02
2022-12-20T12:26:47.288Z,999.04
2022-12-20T12:27:47.363Z,999.03
2022-12-20T12:28:47.305Z,998.96